KSAV/SAV METAR and TAF weather

Enter ICAO airport designator
Station Type Date Time Source
KSAV METAR 2019/04/18 21:53 UTC NOAA

KSAV 182153Z 16017G23KT 10SM FEW032 SCT050 SCT065 26/17 A2992 RMK AO2 PK WND 15027/2126 SLP131 T02610167


Station Type Date Time Source
KSAV Decoded METAR 2019/04/18 21:53 UTC NOAA

SAVANNAH INTERNATIONAL AIRPORT , GA, United States (KSAV) 32-07N 81-12W 14M
Apr 18, 2019 - 05:53 PM EDT / 2019.04.18 2153 UTC
Wind: from the SSE (160 degrees) at 20 MPH (17 KT) gusting to 26 MPH (23 KT):0
Visibility: 10 mile(s):0
Sky conditions: partly cloudy
Temperature: 79.0 F (26.1 C)
Dew Point: 62.1 F (16.7 C)
Relative Humidity: 56%
Pressure (altimeter): 29.92 in. Hg (1013 hPa)
ob: KSAV 182153Z 16017G23KT 10SM FEW032 SCT050 SCT065 26/17 A2992 RMK AO2 PK WND 15027/2126 SLP131 T02610167
cycle: 22

Station Type Date Time Source
KSAV TAF 2019/04/18 19:08 UTC NOAA

TAF
AMD KSAV 181904Z 1819/1918 15013G20KT P6SM SCT040 BKN060
TEMPO 1819/1823 -SHRA BKN040
FM190000 15009KT P6SM SCT025 BKN200
FM190800 17013G20KT P6SM SCT020 BKN035
FM191400 17029G30KT P6SM VCTS SCT020CB BKN035

Example: see airport list